sensor_id;sensor_type;location;lat;lon;timestamp;pressure;altitude;pressure_sealevel;temperature;humidity
10482;BME280;5288;42.334;23.876;2023-04-29T00:01:38;56300.44;;;-140.56;70.38
10482;BME280;5288;42.334;23.876;2023-04-29T00:04:05;56286.59;;;-140.56;70.61
10482;BME280;5288;42.334;23.876;2023-04-29T00:06:33;56304.38;;;-140.56;70.46
10482;BME280;5288;42.334;23.876;2023-04-29T00:09:00;56306.34;;;-140.56;70.49
10482;BME280;5288;42.334;23.876;2023-04-29T00:11:29;56296.47;;;-140.56;70.56
10482;BME280;5288;42.334;23.876;2023-04-29T00:13:55;56302.41;;;-140.56;70.55
10482;BME280;5288;42.334;23.876;2023-04-29T00:16:22;56316.25;;;-140.56;70.38
10482;BME280;5288;42.334;23.876;2023-04-29T00:18:50;56332.03;;;-140.56;70.63
10482;BME280;5288;42.334;23.876;2023-04-29T00:21:17;56324.13;;;-140.56;70.62
10482;BME280;5288;42.334;23.876;2023-04-29T00:23:45;56266.81;;;-140.56;70.57
10482;BME280;5288;42.334;23.876;2023-04-29T00:26:12;56298.44;;;-140.56;70.66
10482;BME280;5288;42.334;23.876;2023-04-29T00:28:39;56296.47;;;-140.56;70.14
10482;BME280;5288;42.334;23.876;2023-04-29T00:31:06;56339.94;;;-140.56;70.18
10482;BME280;5288;42.334;23.876;2023-04-29T00:33:33;56312.28;;;-140.56;70.35
10482;BME280;5288;42.334;23.876;2023-04-29T00:36:00;56310.31;;;-140.56;70.20
10482;BME280;5288;42.334;23.876;2023-04-29T00:38:28;56318.22;;;-140.56;70.26
10482;BME280;5288;42.334;23.876;2023-04-29T00:40:56;56314.25;;;-140.56;70.66
10482;BME280;5288;42.334;23.876;2023-04-29T00:43:23;56284.63;;;-140.56;70.68
10482;BME280;5288;42.334;23.876;2023-04-29T00:45:50;56318.22;;;-140.56;70.99
10482;BME280;5288;42.334;23.876;2023-04-29T00:48:18;56304.38;;;-140.56;71.63
10482;BME280;5288;42.334;23.876;2023-04-29T00:50:45;56314.25;;;-140.56;71.73
10482;BME280;5288;42.334;23.876;2023-04-29T00:53:13;56296.47;;;-140.56;71.79
10482;BME280;5288;42.334;23.876;2023-04-29T00:55:40;56310.31;;;-140.56;71.75
10482;BME280;5288;42.334;23.876;2023-04-29T00:58:11;56312.28;;;-140.56;71.34
10482;BME280;5288;42.334;23.876;2023-04-29T01:00:38;56314.25;;;-140.56;70.99
10482;BME280;5288;42.334;23.876;2023-04-29T01:03:06;56294.50;;;-140.56;71.36
10482;BME280;5288;42.334;23.876;2023-04-29T01:05:34;56304.38;;;-140.56;71.25
10482;BME280;5288;42.334;23.876;2023-04-29T01:08:13;56288.56;;;-140.56;70.72
10482;BME280;5288;42.334;23.876;2023-04-29T01:10:47;56264.84;;;-140.56;70.61
10482;BME280;5288;42.334;23.876;2023-04-29T01:13:27;56324.13;;;-140.56;70.21
10482;BME280;5288;42.334;23.876;2023-04-29T01:16:03;56298.44;;;-140.56;69.98
10482;BME280;5288;42.334;23.876;2023-04-29T01:18:34;56298.44;;;-140.56;69.47
10482;BME280;5288;42.334;23.876;2023-04-29T01:21:02;56292.53;;;-140.56;69.27
10482;BME280;5288;42.334;23.876;2023-04-29T01:23:31;56298.44;;;-140.56;69.08
10482;BME280;5288;42.334;23.876;2023-04-29T01:25:58;56312.28;;;-140.56;69.37
10482;BME280;5288;42.334;23.876;2023-04-29T01:28:37;56316.25;;;-140.56;69.24
10482;BME280;5288;42.334;23.876;2023-04-29T01:31:09;56353.78;;;-140.56;69.14
10482;BME280;5288;42.334;23.876;2023-04-29T01:33:43;56322.16;;;-140.56;69.48
10482;BME280;5288;42.334;23.876;2023-04-29T01:36:22;56306.34;;;-140.56;69.73
10482;BME280;5288;42.334;23.876;2023-04-29T01:39:02;56280.66;;;-140.56;69.55
10482;BME280;5288;42.334;23.876;2023-04-29T01:41:37;56290.53;;;-140.56;69.03
10482;BME280;5288;42.334;23.876;2023-04-29T01:44:12;56326.13;;;-140.56;69.15
10482;BME280;5288;42.334;23.876;2023-04-29T01:46:42;56320.19;;;-140.56;69.67
10482;BME280;5288;42.334;23.876;2023-04-29T01:49:09;56343.91;;;-140.56;70.11
10482;BME280;5288;42.334;23.876;2023-04-29T01:51:36;56314.25;;;-140.56;70.23
10482;BME280;5288;42.334;23.876;2023-04-29T01:54:05;56339.94;;;-140.56;70.97
10482;BME280;5288;42.334;23.876;2023-04-29T01:56:32;56353.78;;;-140.56;71.40
10482;BME280;5288;42.334;23.876;2023-04-29T01:58:58;56290.53;;;-140.56;71.36
10482;BME280;5288;42.334;23.876;2023-04-29T02:01:26;56318.22;;;-140.56;71.49
10482;BME280;5288;42.334;23.876;2023-04-29T02:03:53;56308.34;;;-140.56;71.59
10482;BME280;5288;42.334;23.876;2023-04-29T02:06:20;56294.50;;;-140.56;71.83
10482;BME280;5288;42.334;23.876;2023-04-29T02:08:47;56330.06;;;-140.56;71.72
10482;BME280;5288;42.334;23.876;2023-04-29T02:11:15;56290.53;;;-140.56;71.60
10482;BME280;5288;42.334;23.876;2023-04-29T02:13:42;56343.91;;;-140.56;72.20
10482;BME280;5288;42.334;23.876;2023-04-29T02:16:10;56310.31;;;-140.56;72.70
10482;BME280;5288;42.334;23.876;2023-04-29T02:18:37;56310.31;;;-140.56;72.74
10482;BME280;5288;42.334;23.876;2023-04-29T02:21:05;56300.44;;;-140.56;72.34
10482;BME280;5288;42.334;23.876;2023-04-29T02:23:32;56330.06;;;-140.56;73.15
10482;BME280;5288;42.334;23.876;2023-04-29T02:25:59;56298.44;;;-140.56;73.36
10482;BME280;5288;42.334;23.876;2023-04-29T02:28:29;56310.31;;;-140.56;72.62
10482;BME280;5288;42.334;23.876;2023-04-29T02:30:56;56320.19;;;-140.56;72.60
10482;BME280;5288;42.334;23.876;2023-04-29T02:33:23;56337.97;;;-140.56;72.43
10482;BME280;5288;42.334;23.876;2023-04-29T02:35:50;56302.41;;;-140.56;71.96
10482;BME280;5288;42.334;23.876;2023-04-29T02:38:17;56337.97;;;-140.56;71.91
10482;BME280;5288;42.334;23.876;2023-04-29T02:40:45;56328.09;;;-140.56;71.81
10482;BME280;5288;42.334;23.876;2023-04-29T02:43:12;56296.47;;;-140.56;71.51
10482;BME280;5288;42.334;23.876;2023-04-29T02:45:40;56316.25;;;-140.56;71.07
10482;BME280;5288;42.334;23.876;2023-04-29T02:48:07;56332.03;;;-140.56;71.53
10482;BME280;5288;42.334;23.876;2023-04-29T02:50:34;56345.88;;;-140.56;71.15
10482;BME280;5288;42.334;23.876;2023-04-29T02:53:01;56320.19;;;-140.56;70.93
10482;BME280;5288;42.334;23.876;2023-04-29T02:55:28;56298.44;;;-140.56;71.16
10482;BME280;5288;42.334;23.876;2023-04-29T02:57:55;56324.13;;;-140.56;70.90
10482;BME280;5288;42.334;23.876;2023-04-29T03:00:22;56357.75;;;-140.56;70.95
10482;BME280;5288;42.334;23.876;2023-04-29T03:02:51;56318.22;;;-140.56;72.00
10482;BME280;5288;42.334;23.876;2023-04-29T03:05:18;56318.22;;;-140.56;72.43
10482;BME280;5288;42.334;23.876;2023-04-29T03:07:45;56328.09;;;-140.56;72.31
10482;BME280;5288;42.334;23.876;2023-04-29T03:10:12;56292.53;;;-140.56;71.85
10482;BME280;5288;42.334;23.876;2023-04-29T03:12:39;56316.25;;;-140.56;71.88
10482;BME280;5288;42.334;23.876;2023-04-29T03:15:07;56298.44;;;-140.56;72.02
10482;BME280;5288;42.334;23.876;2023-04-29T03:17:35;56294.50;;;-140.56;71.87
10482;BME280;5288;42.334;23.876;2023-04-29T03:20:05;56367.63;;;-140.56;71.52
10482;BME280;5288;42.334;23.876;2023-04-29T03:22:32;56306.34;;;-140.56;71.82
10482;BME280;5288;42.334;23.876;2023-04-29T03:24:59;56336.00;;;-140.56;71.58
10482;BME280;5288;42.334;23.876;2023-04-29T03:27:26;56316.25;;;-140.56;71.96
10482;BME280;5288;42.334;23.876;2023-04-29T03:29:53;56341.94;;;-140.56;71.91
10482;BME280;5288;42.334;23.876;2023-04-29T03:32:20;56361.69;;;-140.56;72.06
10482;BME280;5288;42.334;23.876;2023-04-29T03:34:47;56322.16;;;-140.56;71.80
10482;BME280;5288;42.334;23.876;2023-04-29T03:37:16;56337.97;;;-140.56;71.86
10482;BME280;5288;42.334;23.876;2023-04-29T03:39:43;56330.06;;;-140.56;72.61
10482;BME280;5288;42.334;23.876;2023-04-29T03:42:10;56373.56;;;-140.56;72.31
10482;BME280;5288;42.334;23.876;2023-04-29T03:44:37;56343.91;;;-140.56;72.85
10482;BME280;5288;42.334;23.876;2023-04-29T03:47:04;56290.53;;;-140.56;73.22
10482;BME280;5288;42.334;23.876;2023-04-29T03:49:31;56322.16;;;-140.56;73.58
10482;BME280;5288;42.334;23.876;2023-04-29T03:51:58;56332.03;;;-140.56;73.76
10482;BME280;5288;42.334;23.876;2023-04-29T03:54:27;56330.06;;;-140.56;73.88
10482;BME280;5288;42.334;23.876;2023-04-29T03:56:54;56337.97;;;-140.56;74.79
10482;BME280;5288;42.334;23.876;2023-04-29T03:59:21;56341.94;;;-140.56;74.32
10482;BME280;5288;42.334;23.876;2023-04-29T04:01:48;56312.28;;;-140.56;75.05
10482;BME280;5288;42.334;23.876;2023-04-29T04:04:16;56312.28;;;-140.56;74.73
10482;BME280;5288;42.334;23.876;2023-04-29T04:06:43;56347.84;;;-140.56;75.04
10482;BME280;5288;42.334;23.876;2023-04-29T04:09:15;56339.94;;;-140.56;75.43
10482;BME280;5288;42.334;23.876;2023-04-29T04:11:43;56337.97;;;-140.56;75.47
10482;BME280;5288;42.334;23.876;2023-04-29T04:14:10;56314.25;;;-140.56;75.97
10482;BME280;5288;42.334;23.876;2023-04-29T04:16:38;56328.09;;;-140.56;75.57
10482;BME280;5288;42.334;23.876;2023-04-29T04:19:05;56341.94;;;-140.56;76.03
10482;BME280;5288;42.334;23.876;2023-04-29T04:21:32;56322.16;;;-140.56;75.83
10482;BME280;5288;42.334;23.876;2023-04-29T04:23:59;56326.13;;;-140.56;76.04
10482;BME280;5288;42.334;23.876;2023-04-29T04:26:26;56312.28;;;-140.56;76.11
10482;BME280;5288;42.334;23.876;2023-04-29T04:28:54;56351.81;;;-140.56;76.24
10482;BME280;5288;42.334;23.876;2023-04-29T04:31:21;56308.34;;;-140.56;76.60
10482;BME280;5288;42.334;23.876;2023-04-29T04:33:48;56339.94;;;-140.56;76.19
10482;BME280;5288;42.334;23.876;2023-04-29T04:36:15;56328.09;;;-140.56;76.61
10482;BME280;5288;42.334;23.876;2023-04-29T04:38:42;56274.72;;;-140.56;76.50
10482;BME280;5288;42.334;23.876;2023-04-29T04:41:09;56290.53;;;-140.56;76.76
10482;BME280;5288;42.334;23.876;2023-04-29T04:43:36;56330.06;;;-140.56;76.94
10482;BME280;5288;42.334;23.876;2023-04-29T04:46:10;56308.34;;;-140.56;77.31
10482;BME280;5288;42.334;23.876;2023-04-29T04:48:37;56298.44;;;-140.56;77.28
10482;BME280;5288;42.334;23.876;2023-04-29T04:51:08;56341.94;;;-140.56;76.66
10482;BME280;5288;42.334;23.876;2023-04-29T04:53:35;56294.50;;;-140.56;76.28
10482;BME280;5288;42.334;23.876;2023-04-29T04:56:02;56336.00;;;-140.56;76.05
10482;BME280;5288;42.334;23.876;2023-04-29T04:58:30;56304.38;;;-140.56;75.67
10482;BME280;5288;42.334;23.876;2023-04-29T05:00:57;56341.94;;;-140.56;75.05
10482;BME280;5288;42.334;23.876;2023-04-29T05:03:25;56308.34;;;-140.56;73.60
10482;BME280;5288;42.334;23.876;2023-04-29T05:05:53;56288.56;;;-140.56;72.43
10482;BME280;5288;42.334;23.876;2023-04-29T05:08:20;56300.44;;;-140.56;71.57
10482;BME280;5288;42.334;23.876;2023-04-29T05:10:47;56284.63;;;-140.56;71.06
10482;BME280;5288;42.334;23.876;2023-04-29T05:13:14;56294.50;;;-140.56;70.90
10482;BME280;5288;42.334;23.876;2023-04-29T05:15:41;56296.47;;;-140.56;70.35
10482;BME280;5288;42.334;23.876;2023-04-29T05:18:09;56302.41;;;-140.56;70.75
10482;BME280;5288;42.334;23.876;2023-04-29T05:20:38;56334.03;;;-140.56;70.48
10482;BME280;5288;42.334;23.876;2023-04-29T05:23:04;56312.28;;;-140.56;70.71
10482;BME280;5288;42.334;23.876;2023-04-29T05:25:31;56286.59;;;-140.56;70.86
10482;BME280;5288;42.334;23.876;2023-04-29T05:27:58;56251.03;;;-140.56;71.16
10482;BME280;5288;42.334;23.876;2023-04-29T05:30:28;56306.34;;;-140.56;71.07
10482;BME280;5288;42.334;23.876;2023-04-29T05:32:55;56288.56;;;-140.56;70.69
10482;BME280;5288;42.334;23.876;2023-04-29T05:35:23;56278.69;;;-140.56;69.74
10482;BME280;5288;42.334;23.876;2023-04-29T05:37:51;56292.53;;;-140.56;69.89
10482;BME280;5288;42.334;23.876;2023-04-29T05:40:18;56280.66;;;-140.56;68.92
10482;BME280;5288;42.334;23.876;2023-04-29T05:42:45;56276.72;;;-140.56;67.99
10482;BME280;5288;42.334;23.876;2023-04-29T05:45:12;56262.88;;;-140.56;67.48
10482;BME280;5288;42.334;23.876;2023-04-29T05:47:40;56278.69;;;-140.56;65.88
10482;BME280;5288;42.334;23.876;2023-04-29T05:50:07;56254.97;;;-140.56;65.23
10482;BME280;5288;42.334;23.876;2023-04-29T05:52:34;56284.63;;;-140.56;65.08
10482;BME280;5288;42.334;23.876;2023-04-29T05:55:03;56251.03;;;-140.56;64.96
10482;BME280;5288;42.334;23.876;2023-04-29T05:57:30;56254.97;;;-140.56;63.92
10482;BME280;5288;42.334;23.876;2023-04-29T05:59:57;56304.38;;;-140.56;62.58
10482;BME280;5288;42.334;23.876;2023-04-29T06:02:25;56292.53;;;-140.56;61.79
10482;BME280;5288;42.334;23.876;2023-04-29T06:04:52;56286.59;;;-140.56;60.71
10482;BME280;5288;42.334;23.876;2023-04-29T06:07:19;56280.66;;;-140.56;60.65
10482;BME280;5288;42.334;23.876;2023-04-29T06:09:46;56249.03;;;-140.56;59.70
10482;BME280;5288;42.334;23.876;2023-04-29T06:12:14;56254.97;;;-140.56;59.95
10482;BME280;5288;42.334;23.876;2023-04-29T06:14:41;56262.88;;;-140.56;58.77
10482;BME280;5288;42.334;23.876;2023-04-29T06:17:10;56237.19;;;-140.56;58.78
10482;BME280;5288;42.334;23.876;2023-04-29T06:19:37;56233.22;;;-140.56;58.74
10482;BME280;5288;42.334;23.876;2023-04-29T06:22:04;56221.38;;;-140.56;57.08
10482;BME280;5288;42.334;23.876;2023-04-29T06:24:31;56241.13;;;-140.56;56.84
10482;BME280;5288;42.334;23.876;2023-04-29T06:26:58;56231.25;;;-140.56;55.24
10482;BME280;5288;42.334;23.876;2023-04-29T06:29:26;56235.22;;;-140.56;54.43
10482;BME280;5288;42.334;23.876;2023-04-29T06:31:53;56213.47;;;-140.56;54.52
10482;BME280;5288;42.334;23.876;2023-04-29T06:34:20;56217.41;;;-140.56;53.24
10482;BME280;5288;42.334;23.876;2023-04-29T06:36:47;56197.66;;;-140.56;53.19
10482;BME280;5288;42.334;23.876;2023-04-29T06:39:14;56213.47;;;-140.56;54.12
10482;BME280;5288;42.334;23.876;2023-04-29T06:41:41;56185.81;;;-140.56;53.52
10482;BME280;5288;42.334;23.876;2023-04-29T06:44:08;56199.63;;;-140.56;52.44
10482;BME280;5288;42.334;23.876;2023-04-29T06:46:36;56199.63;;;-140.56;51.87
10482;BME280;5288;42.334;23.876;2023-04-29T06:49:03;56193.72;;;-140.56;52.29
10482;BME280;5288;42.334;23.876;2023-04-29T06:51:31;56170.00;;;-140.56;51.19
10482;BME280;5288;42.334;23.876;2023-04-29T06:53:58;56213.47;;;-140.56;50.57
10482;BME280;5288;42.334;23.876;2023-04-29T06:56:25;56170.00;;;-140.56;50.92
10482;BME280;5288;42.334;23.876;2023-04-29T06:58:52;56179.88;;;-140.56;50.86
10482;BME280;5288;42.334;23.876;2023-04-29T07:01:19;56189.75;;;-140.56;49.34
10482;BME280;5288;42.334;23.876;2023-04-29T07:03:48;56171.97;;;-140.56;49.70
10482;BME280;5288;42.334;23.876;2023-04-29T07:06:15;56203.59;;;-140.56;49.43
10482;BME280;5288;42.334;23.876;2023-04-29T07:08:42;56183.81;;;-140.56;49.48
10482;BME280;5288;42.334;23.876;2023-04-29T07:11:09;56175.91;;;-140.56;48.82
10482;BME280;5288;42.334;23.876;2023-04-29T07:13:36;56171.97;;;-140.56;48.22
10482;BME280;5288;42.334;23.876;2023-04-29T07:16:03;56156.16;;;-140.56;49.13
10482;BME280;5288;42.334;23.876;2023-04-29T07:18:30;56199.63;;;-140.56;47.44
10482;BME280;5288;42.334;23.876;2023-04-29T07:21:01;56195.69;;;-140.56;47.39
10482;BME280;5288;42.334;23.876;2023-04-29T07:23:28;56162.09;;;-140.56;47.43
10482;BME280;5288;42.334;23.876;2023-04-29T07:25:55;56156.16;;;-140.56;46.19
10482;BME280;5288;42.334;23.876;2023-04-29T07:28:22;56160.13;;;-140.56;45.91
10482;BME280;5288;42.334;23.876;2023-04-29T07:30:50;56166.03;;;-140.56;46.19
10482;BME280;5288;42.334;23.876;2023-04-29T07:33:17;56134.41;;;-140.56;45.89
10482;BME280;5288;42.334;23.876;2023-04-29T07:35:44;56154.19;;;-140.56;46.32
10482;BME280;5288;42.334;23.876;2023-04-29T07:38:13;56160.13;;;-140.56;45.31
10482;BME280;5288;42.334;23.876;2023-04-29T07:40:41;56189.75;;;-140.56;44.82
10482;BME280;5288;42.334;23.876;2023-04-29T07:43:08;56124.53;;;-140.56;43.21
10482;BME280;5288;42.334;23.876;2023-04-29T07:45:35;56142.31;;;-140.56;43.47
10482;BME280;5288;42.334;23.876;2023-04-29T07:48:02;56144.31;;;-140.56;44.82
10482;BME280;5288;42.334;23.876;2023-04-29T07:50:29;56100.81;;;-140.56;43.70
10482;BME280;5288;42.334;23.876;2023-04-29T07:52:56;56132.44;;;-140.56;42.94
10482;BME280;5288;42.334;23.876;2023-04-29T07:55:26;56168.00;;;-140.56;45.04
10482;BME280;5288;42.334;23.876;2023-04-29T07:57:54;56140.34;;;-140.56;43.23
10482;BME280;5288;42.334;23.876;2023-04-29T08:00:21;56130.47;;;-140.56;43.42
10482;BME280;5288;42.334;23.876;2023-04-29T08:02:50;56158.13;;;-140.56;42.70
10482;BME280;5288;42.334;23.876;2023-04-29T08:05:17;56106.75;;;-140.56;42.48
10482;BME280;5288;42.334;23.876;2023-04-29T08:07:45;56128.50;;;-140.56;41.53
10482;BME280;5288;42.334;23.876;2023-04-29T08:10:12;56126.50;;;-140.56;41.56
10482;BME280;5288;42.334;23.876;2023-04-29T08:12:40;56116.63;;;-140.56;41.54
10482;BME280;5288;42.334;23.876;2023-04-29T08:15:07;56132.44;;;-140.56;42.09
10482;BME280;5288;42.334;23.876;2023-04-29T08:17:34;56075.13;;;-140.56;41.00
10482;BME280;5288;42.334;23.876;2023-04-29T08:20:01;56138.38;;;-140.56;40.58
10482;BME280;5288;42.334;23.876;2023-04-29T08:22:28;56077.09;;;-140.56;41.04
10482;BME280;5288;42.334;23.876;2023-04-29T08:24:56;56077.09;;;-140.56;39.75
10482;BME280;5288;42.334;23.876;2023-04-29T08:27:23;56087.00;;;-140.56;39.63
10482;BME280;5288;42.334;23.876;2023-04-29T08:29:51;56053.41;;;-140.56;38.37
10482;BME280;5288;42.334;23.876;2023-04-29T08:32:18;56104.78;;;-140.56;38.13
10482;BME280;5288;42.334;23.876;2023-04-29T08:34:45;56116.63;;;-140.56;38.04
10482;BME280;5288;42.334;23.876;2023-04-29T08:37:12;56110.72;;;-140.56;38.05
10482;BME280;5288;42.334;23.876;2023-04-29T08:39:40;56094.91;;;-140.56;38.12
10482;BME280;5288;42.334;23.876;2023-04-29T08:42:08;56108.72;;;-140.56;38.33
10482;BME280;5288;42.334;23.876;2023-04-29T08:44:35;56083.03;;;-140.56;39.09
10482;BME280;5288;42.334;23.876;2023-04-29T08:47:04;56112.69;;;-140.56;37.64
10482;BME280;5288;42.334;23.876;2023-04-29T08:49:31;56087.00;;;-140.56;36.98
10482;BME280;5288;42.334;23.876;2023-04-29T08:51:59;56071.19;;;-140.56;36.36
10482;BME280;5288;42.334;23.876;2023-04-29T08:54:26;56047.47;;;-140.56;37.11
10482;BME280;5288;42.334;23.876;2023-04-29T08:56:54;56063.28;;;-140.56;36.88
10482;BME280;5288;42.334;23.876;2023-04-29T08:59:22;56057.34;;;-140.56;37.01
10482;BME280;5288;42.334;23.876;2023-04-29T09:01:50;56069.22;;;-140.56;36.00
10482;BME280;5288;42.334;23.876;2023-04-29T09:04:36;56083.03;;;-140.56;36.12
10482;BME280;5288;42.334;23.876;2023-04-29T09:07:06;56067.22;;;-140.56;35.67
10482;BME280;5288;42.334;23.876;2023-04-29T09:09:34;56071.19;;;-140.56;35.74
10482;BME280;5288;42.334;23.876;2023-04-29T09:12:01;56071.19;;;-140.56;35.25
10482;BME280;5288;42.334;23.876;2023-04-29T09:14:29;56085.00;;;-140.56;35.17
10482;BME280;5288;42.334;23.876;2023-04-29T09:16:58;56049.44;;;-140.56;36.23
10482;BME280;5288;42.334;23.876;2023-04-29T09:19:31;56065.25;;;-140.56;34.76
10482;BME280;5288;42.334;23.876;2023-04-29T09:21:59;56047.47;;;-140.56;35.02
10482;BME280;5288;42.334;23.876;2023-04-29T09:24:26;56015.84;;;-140.56;34.86
10482;BME280;5288;42.334;23.876;2023-04-29T09:26:55;56031.66;;;-140.56;34.71
10482;BME280;5288;42.334;23.876;2023-04-29T09:29:22;56045.50;;;-140.56;33.32
10482;BME280;5288;42.334;23.876;2023-04-29T09:31:49;56011.91;;;-140.56;32.65
10482;BME280;5288;42.334;23.876;2023-04-29T09:34:31;56029.69;;;-140.56;33.61
10482;BME280;5288;42.334;23.876;2023-04-29T09:37:00;55986.22;;;-140.56;34.11
10482;BME280;5288;42.334;23.876;2023-04-29T09:39:37;56013.88;;;-140.56;32.78
10482;BME280;5288;42.334;23.876;2023-04-29T09:42:05;55994.13;;;-140.56;32.85
10482;BME280;5288;42.334;23.876;2023-04-29T09:44:34;56027.72;;;-140.56;33.14
10482;BME280;5288;42.334;23.876;2023-04-29T09:47:03;56017.81;;;-140.56;32.89
10482;BME280;5288;42.334;23.876;2023-04-29T09:49:33;56019.81;;;-140.56;32.53
10482;BME280;5288;42.334;23.876;2023-04-29T09:52:03;56007.94;;;-140.56;32.99
10482;BME280;5288;42.334;23.876;2023-04-29T09:54:32;55998.06;;;-140.56;33.37
10482;BME280;5288;42.334;23.876;2023-04-29T09:57:01;56000.03;;;-140.56;32.48
10482;BME280;5288;42.334;23.876;2023-04-29T09:59:31;56007.94;;;-140.56;33.12
10482;BME280;5288;42.334;23.876;2023-04-29T10:02:01;56009.91;;;-140.56;33.54
10482;BME280;5288;42.334;23.876;2023-04-29T10:04:39;56019.81;;;-140.56;32.62
10482;BME280;5288;42.334;23.876;2023-04-29T10:07:08;56009.91;;;-140.56;32.45
10482;BME280;5288;42.334;23.876;2023-04-29T10:09:36;55996.09;;;-140.56;31.72
10482;BME280;5288;42.334;23.876;2023-04-29T10:12:06;55984.22;;;-140.56;32.07
10482;BME280;5288;42.334;23.876;2023-04-29T10:14:52;55946.69;;;-140.56;31.55
10482;BME280;5288;42.334;23.876;2023-04-29T10:17:26;55992.13;;;-140.56;30.75
10482;BME280;5288;42.334;23.876;2023-04-29T10:20:02;56002.00;;;-140.56;30.71
10482;BME280;5288;42.334;23.876;2023-04-29T10:22:36;55982.25;;;-140.56;31.84
10482;BME280;5288;42.334;23.876;2023-04-29T10:25:09;55992.13;;;-140.56;31.88
10482;BME280;5288;42.334;23.876;2023-04-29T10:27:37;55972.38;;;-140.56;31.57
10482;BME280;5288;42.334;23.876;2023-04-29T10:30:08;55986.22;;;-140.56;30.57
10482;BME280;5288;42.334;23.876;2023-04-29T10:32:39;56005.97;;;-140.56;30.43
10482;BME280;5288;42.334;23.876;2023-04-29T10:35:09;55942.72;;;-140.56;31.39
10482;BME280;5288;42.334;23.876;2023-04-29T10:37:37;55980.28;;;-140.56;31.59
10482;BME280;5288;42.334;23.876;2023-04-29T10:40:10;55940.75;;;-140.56;32.11
10482;BME280;5288;42.334;23.876;2023-04-29T10:42:44;55948.66;;;-140.56;30.67
10482;BME280;5288;42.334;23.876;2023-04-29T10:45:24;55926.94;;;-140.56;28.83
10482;BME280;5288;42.334;23.876;2023-04-29T10:48:13;55936.81;;;-140.56;28.79
10482;BME280;5288;42.334;23.876;2023-04-29T10:51:06;55909.13;;;-140.56;29.84
10482;BME280;5288;42.334;23.876;2023-04-29T10:53:33;55903.22;;;-140.56;29.17
10482;BME280;5288;42.334;23.876;2023-04-29T10:56:07;55946.69;;;-140.56;28.92
10482;BME280;5288;42.334;23.876;2023-04-29T10:58:37;55913.09;;;-140.56;30.01
10482;BME280;5288;42.334;23.876;2023-04-29T11:01:06;55903.22;;;-140.56;30.69
10482;BME280;5288;42.334;23.876;2023-04-29T11:03:49;55942.72;;;-140.56;30.78
10482;BME280;5288;42.334;23.876;2023-04-29T11:06:21;55934.81;;;-140.56;29.71
10482;BME280;5288;42.334;23.876;2023-04-29T11:08:59;55968.41;;;-140.56;31.14
10482;BME280;5288;42.334;23.876;2023-04-29T11:11:42;55934.81;;;-140.56;31.01
10482;BME280;5288;42.334;23.876;2023-04-29T11:14:11;55952.63;;;-140.56;30.73
10482;BME280;5288;42.334;23.876;2023-04-29T11:16:46;55974.34;;;-140.56;30.99
10482;BME280;5288;42.334;23.876;2023-04-29T11:19:15;55932.84;;;-140.56;31.71
10482;BME280;5288;42.334;23.876;2023-04-29T11:21:44;55970.41;;;-140.56;32.17
10482;BME280;5288;42.334;23.876;2023-04-29T11:24:13;55944.72;;;-140.56;32.78
10482;BME280;5288;42.334;23.876;2023-04-29T11:26:42;55932.84;;;-140.56;30.93
10482;BME280;5288;42.334;23.876;2023-04-29T11:29:10;55974.34;;;-140.56;32.34
10482;BME280;5288;42.334;23.876;2023-04-29T11:31:38;55962.50;;;-140.56;32.79
10482;BME280;5288;42.334;23.876;2023-04-29T11:34:05;55954.59;;;-140.56;32.10
10482;BME280;5288;42.334;23.876;2023-04-29T11:36:33;55917.03;;;-140.56;31.93
10482;BME280;5288;42.334;23.876;2023-04-29T11:39:03;55942.72;;;-140.56;31.34
10482;BME280;5288;42.334;23.876;2023-04-29T11:41:30;55986.22;;;-140.56;32.33
10482;BME280;5288;42.334;23.876;2023-04-29T11:43:58;55976.31;;;-140.56;31.74
10482;BME280;5288;42.334;23.876;2023-04-29T11:46:29;55946.69;;;-140.56;32.82
10482;BME280;5288;42.334;23.876;2023-04-29T11:48:57;55942.72;;;-140.56;31.48
10482;BME280;5288;42.334;23.876;2023-04-29T11:51:24;55932.84;;;-140.56;31.58
10482;BME280;5288;42.334;23.876;2023-04-29T11:53:52;55950.63;;;-140.56;32.34
10482;BME280;5288;42.334;23.876;2023-04-29T11:56:22;55919.03;;;-140.56;31.95
10482;BME280;5288;42.334;23.876;2023-04-29T11:58:53;55968.41;;;-140.56;31.34
10482;BME280;5288;42.334;23.876;2023-04-29T12:01:22;55944.72;;;-140.56;32.04
10482;BME280;5288;42.334;23.876;2023-04-29T12:03:48;55956.56;;;-140.56;32.37
10482;BME280;5288;42.334;23.876;2023-04-29T12:06:16;55968.41;;;-140.56;32.16
10482;BME280;5288;42.334;23.876;2023-04-29T12:08:46;55966.44;;;-140.56;32.88
10482;BME280;5288;42.334;23.876;2023-04-29T12:11:13;56000.03;;;-140.56;32.65
10482;BME280;5288;42.334;23.876;2023-04-29T12:13:41;55998.06;;;-140.56;33.17
10482;BME280;5288;42.334;23.876;2023-04-29T12:16:09;55954.59;;;-140.56;33.03
10482;BME280;5288;42.334;23.876;2023-04-29T12:18:37;55958.53;;;-140.56;33.01
10482;BME280;5288;42.334;23.876;2023-04-29T12:21:04;55974.34;;;-140.56;32.76
10482;BME280;5288;42.334;23.876;2023-04-29T12:23:31;55986.22;;;-140.56;32.55
10482;BME280;5288;42.334;23.876;2023-04-29T12:26:01;55972.38;;;-140.56;32.29
10482;BME280;5288;42.334;23.876;2023-04-29T12:28:28;55988.19;;;-140.56;32.11
10482;BME280;5288;42.334;23.876;2023-04-29T12:30:58;55976.31;;;-140.56;33.71
10482;BME280;5288;42.334;23.876;2023-04-29T12:33:28;56000.03;;;-140.56;32.61
10482;BME280;5288;42.334;23.876;2023-04-29T12:35:56;55998.06;;;-140.56;33.43
10482;BME280;5288;42.334;23.876;2023-04-29T12:38:24;55994.13;;;-140.56;33.63
10482;BME280;5288;42.334;23.876;2023-04-29T12:40:52;56005.97;;;-140.56;33.12
10482;BME280;5288;42.334;23.876;2023-04-29T12:43:25;55980.28;;;-140.56;33.74
10482;BME280;5288;42.334;23.876;2023-04-29T12:45:59;56009.91;;;-140.56;33.15
10482;BME280;5288;42.334;23.876;2023-04-29T12:48:30;55972.38;;;-140.56;33.66